sensor_id;sensor_type;location;lat;lon;timestamp;P1;durP1;ratioP1;P2;durP2;ratioP2
13171;SDS011;6651;53.200;10.432;2023-05-20T00:02:16;3.08;;;1.50;;
13171;SDS011;6651;53.200;10.432;2023-05-20T00:04:42;3.42;;;1.52;;
13171;SDS011;6651;53.200;10.432;2023-05-20T00:07:08;1.40;;;1.30;;
13171;SDS011;6651;53.200;10.432;2023-05-20T00:09:34;2.80;;;1.55;;
13171;SDS011;6651;53.200;10.432;2023-05-20T00:12:00;4.10;;;1.70;;
13171;SDS011;6651;53.200;10.432;2023-05-20T00:14:26;2.03;;;1.27;;
13171;SDS011;6651;53.200;10.432;2023-05-20T00:16:52;7.18;;;1.63;;
13171;SDS011;6651;53.200;10.432;2023-05-20T00:19:18;1.90;;;1.70;;
13171;SDS011;6651;53.200;10.432;2023-05-20T00:21:44;1.52;;;1.42;;
13171;SDS011;6651;53.200;10.432;2023-05-20T00:24:10;1.83;;;1.13;;
13171;SDS011;6651;53.200;10.432;2023-05-20T00:26:35;2.42;;;1.50;;
13171;SDS011;6651;53.200;10.432;2023-05-20T00:29:01;2.53;;;1.48;;
13171;SDS011;6651;53.200;10.432;2023-05-20T00:31:27;2.42;;;1.40;;
13171;SDS011;6651;53.200;10.432;2023-05-20T00:33:52;2.47;;;1.70;;
13171;SDS011;6651;53.200;10.432;2023-05-20T00:36:18;1.63;;;1.45;;
13171;SDS011;6651;53.200;10.432;2023-05-20T00:38:43;1.52;;;1.42;;
13171;SDS011;6651;53.200;10.432;2023-05-20T00:41:09;2.10;;;1.40;;
13171;SDS011;6651;53.200;10.432;2023-05-20T00:43:35;2.03;;;1.40;;
13171;SDS011;6651;53.200;10.432;2023-05-20T00:46:00;1.55;;;1.42;;
13171;SDS011;6651;53.200;10.432;2023-05-20T00:48:27;2.35;;;1.60;;
13171;SDS011;6651;53.200;10.432;2023-05-20T00:51:00;2.13;;;1.35;;
13171;SDS011;6651;53.200;10.432;2023-05-20T00:53:26;4.05;;;1.40;;
13171;SDS011;6651;53.200;10.432;2023-05-20T00:55:52;1.90;;;1.60;;
13171;SDS011;6651;53.200;10.432;2023-05-20T00:58:18;1.85;;;1.52;;
13171;SDS011;6651;53.200;10.432;2023-05-20T01:00:43;1.85;;;1.65;;
13171;SDS011;6651;53.200;10.432;2023-05-20T01:03:09;2.05;;;1.50;;
13171;SDS011;6651;53.200;10.432;2023-05-20T01:05:35;2.70;;;1.45;;
13171;SDS011;6651;53.200;10.432;2023-05-20T01:08:01;2.03;;;1.33;;
13171;SDS011;6651;53.200;10.432;2023-05-20T01:10:27;1.95;;;1.42;;
13171;SDS011;6651;53.200;10.432;2023-05-20T01:12:56;1.83;;;1.30;;
13171;SDS011;6651;53.200;10.432;2023-05-20T01:15:25;2.10;;;1.40;;
13171;SDS011;6651;53.200;10.432;2023-05-20T01:17:57;3.08;;;1.83;;
13171;SDS011;6651;53.200;10.432;2023-05-20T01:20:29;1.67;;;1.50;;
13171;SDS011;6651;53.200;10.432;2023-05-20T01:22:57;1.52;;;1.42;;
13171;SDS011;6651;53.200;10.432;2023-05-20T01:25:23;2.53;;;1.50;;
13171;SDS011;6651;53.200;10.432;2023-05-20T01:27:50;1.83;;;1.50;;
13171;SDS011;6651;53.200;10.432;2023-05-20T01:30:17;2.53;;;1.70;;
13171;SDS011;6651;53.200;10.432;2023-05-20T01:33:04;2.17;;;1.60;;
13171;SDS011;6651;53.200;10.432;2023-05-20T01:35:33;1.85;;;1.60;;
13171;SDS011;6651;53.200;10.432;2023-05-20T01:37:59;2.00;;;1.33;;
13171;SDS011;6651;53.200;10.432;2023-05-20T01:40:26;2.65;;;1.70;;
13171;SDS011;6651;53.200;10.432;2023-05-20T01:42:53;1.70;;;1.60;;
13171;SDS011;6651;53.200;10.432;2023-05-20T01:45:20;3.28;;;1.50;;
13171;SDS011;6651;53.200;10.432;2023-05-20T01:47:47;2.75;;;1.45;;
13171;SDS011;6651;53.200;10.432;2023-05-20T01:50:13;2.70;;;1.58;;
13171;SDS011;6651;53.200;10.432;2023-05-20T01:52:39;2.28;;;1.60;;
13171;SDS011;6651;53.200;10.432;2023-05-20T01:55:05;1.92;;;1.58;;
13171;SDS011;6651;53.200;10.432;2023-05-20T01:57:31;1.73;;;1.48;;
13171;SDS011;6651;53.200;10.432;2023-05-20T01:59:56;1.52;;;1.40;;
13171;SDS011;6651;53.200;10.432;2023-05-20T02:02:22;2.15;;;1.33;;
13171;SDS011;6651;53.200;10.432;2023-05-20T02:04:50;1.92;;;1.65;;
13171;SDS011;6651;53.200;10.432;2023-05-20T02:07:18;3.05;;;1.73;;
13171;SDS011;6651;53.200;10.432;2023-05-20T02:09:44;2.75;;;1.65;;
13171;SDS011;6651;53.200;10.432;2023-05-20T02:12:10;1.77;;;1.40;;
13171;SDS011;6651;53.200;10.432;2023-05-20T02:14:40;1.83;;;1.50;;
13171;SDS011;6651;53.200;10.432;2023-05-20T02:17:10;2.75;;;1.60;;
13171;SDS011;6651;53.200;10.432;2023-05-20T02:19:36;2.42;;;1.40;;
13171;SDS011;6651;53.200;10.432;2023-05-20T02:22:02;1.73;;;1.42;;
13171;SDS011;6651;53.200;10.432;2023-05-20T02:24:28;3.00;;;1.38;;
13171;SDS011;6651;53.200;10.432;2023-05-20T02:26:53;3.45;;;1.60;;
13171;SDS011;6651;53.200;10.432;2023-05-20T02:29:21;1.77;;;1.50;;
13171;SDS011;6651;53.200;10.432;2023-05-20T02:31:47;2.42;;;1.65;;
13171;SDS011;6651;53.200;10.432;2023-05-20T02:34:14;1.85;;;1.42;;
13171;SDS011;6651;53.200;10.432;2023-05-20T02:36:40;2.08;;;1.38;;
13171;SDS011;6651;53.200;10.432;2023-05-20T02:39:06;3.70;;;1.67;;
13171;SDS011;6651;53.200;10.432;2023-05-20T02:41:32;3.25;;;1.60;;
13171;SDS011;6651;53.200;10.432;2023-05-20T02:43:58;1.63;;;1.30;;
13171;SDS011;6651;53.200;10.432;2023-05-20T02:46:24;1.70;;;1.30;;
13171;SDS011;6651;53.200;10.432;2023-05-20T02:48:51;3.28;;;1.67;;
13171;SDS011;6651;53.200;10.432;2023-05-20T02:51:17;2.67;;;1.60;;
13171;SDS011;6651;53.200;10.432;2023-05-20T02:53:43;1.92;;;1.40;;
13171;SDS011;6651;53.200;10.432;2023-05-20T02:56:09;2.45;;;1.20;;
13171;SDS011;6651;53.200;10.432;2023-05-20T02:58:35;2.65;;;1.33;;
13171;SDS011;6651;53.200;10.432;2023-05-20T03:01:01;2.05;;;1.77;;
13171;SDS011;6651;53.200;10.432;2023-05-20T03:03:27;1.42;;;1.30;;
13171;SDS011;6651;53.200;10.432;2023-05-20T03:05:53;2.40;;;1.45;;
13171;SDS011;6651;53.200;10.432;2023-05-20T03:08:20;3.92;;;1.30;;
13171;SDS011;6651;53.200;10.432;2023-05-20T03:10:46;2.33;;;1.40;;
13171;SDS011;6651;53.200;10.432;2023-05-20T03:13:12;2.58;;;1.45;;
13171;SDS011;6651;53.200;10.432;2023-05-20T03:15:39;2.17;;;1.60;;
13171;SDS011;6651;53.200;10.432;2023-05-20T03:18:05;2.08;;;1.60;;
13171;SDS011;6651;53.200;10.432;2023-05-20T03:20:32;1.25;;;1.10;;
13171;SDS011;6651;53.200;10.432;2023-05-20T03:23:00;2.35;;;1.42;;
13171;SDS011;6651;53.200;10.432;2023-05-20T03:25:26;2.95;;;1.70;;
13171;SDS011;6651;53.200;10.432;2023-05-20T03:27:53;2.17;;;1.60;;
13171;SDS011;6651;53.200;10.432;2023-05-20T03:30:19;1.33;;;1.23;;
13171;SDS011;6651;53.200;10.432;2023-05-20T03:32:45;1.40;;;1.30;;
13171;SDS011;6651;53.200;10.432;2023-05-20T03:35:11;1.95;;;1.40;;
13171;SDS011;6651;53.200;10.432;2023-05-20T03:37:37;2.03;;;1.52;;
13171;SDS011;6651;53.200;10.432;2023-05-20T03:40:04;2.35;;;1.75;;
13171;SDS011;6651;53.200;10.432;2023-05-20T03:42:30;3.15;;;1.50;;
13171;SDS011;6651;53.200;10.432;2023-05-20T03:44:56;2.72;;;1.48;;
13171;SDS011;6651;53.200;10.432;2023-05-20T03:47:24;2.30;;;1.67;;
13171;SDS011;6651;53.200;10.432;2023-05-20T03:49:50;1.75;;;1.60;;
13171;SDS011;6651;53.200;10.432;2023-05-20T03:52:16;1.50;;;1.30;;
13171;SDS011;6651;53.200;10.432;2023-05-20T03:54:42;2.88;;;1.65;;
13171;SDS011;6651;53.200;10.432;2023-05-20T03:57:08;2.03;;;1.45;;
13171;SDS011;6651;53.200;10.432;2023-05-20T03:59:37;2.50;;;1.50;;
13171;SDS011;6651;53.200;10.432;2023-05-20T04:02:04;2.33;;;1.60;;
13171;SDS011;6651;53.200;10.432;2023-05-20T04:04:30;1.88;;;1.50;;
13171;SDS011;6651;53.200;10.432;2023-05-20T04:06:57;3.88;;;1.80;;
13171;SDS011;6651;53.200;10.432;2023-05-20T04:09:28;3.05;;;1.60;;
13171;SDS011;6651;53.200;10.432;2023-05-20T04:11:55;3.28;;;1.65;;
13171;SDS011;6651;53.200;10.432;2023-05-20T04:14:21;2.88;;;1.70;;
13171;SDS011;6651;53.200;10.432;2023-05-20T04:16:47;1.60;;;1.50;;
13171;SDS011;6651;53.200;10.432;2023-05-20T04:19:14;4.53;;;1.60;;
13171;SDS011;6651;53.200;10.432;2023-05-20T04:21:43;2.42;;;1.65;;
13171;SDS011;6651;53.200;10.432;2023-05-20T04:24:09;1.60;;;1.50;;
13171;SDS011;6651;53.200;10.432;2023-05-20T04:26:35;3.30;;;1.90;;
13171;SDS011;6651;53.200;10.432;2023-05-20T04:29:02;3.55;;;1.67;;
13171;SDS011;6651;53.200;10.432;2023-05-20T04:31:29;2.83;;;1.70;;
13171;SDS011;6651;53.200;10.432;2023-05-20T04:33:56;3.22;;;1.60;;
13171;SDS011;6651;53.200;10.432;2023-05-20T04:36:22;4.60;;;1.70;;
13171;SDS011;6651;53.200;10.432;2023-05-20T04:38:54;1.98;;;1.63;;
13171;SDS011;6651;53.200;10.432;2023-05-20T04:41:21;4.97;;;1.80;;
13171;SDS011;6651;53.200;10.432;2023-05-20T04:43:47;2.65;;;1.55;;
13171;SDS011;6651;53.200;10.432;2023-05-20T04:46:14;3.42;;;1.80;;
13171;SDS011;6651;53.200;10.432;2023-05-20T04:48:40;5.82;;;1.90;;
13171;SDS011;6651;53.200;10.432;2023-05-20T04:51:07;2.42;;;1.45;;
13171;SDS011;6651;53.200;10.432;2023-05-20T04:53:33;2.58;;;1.50;;
13171;SDS011;6651;53.200;10.432;2023-05-20T04:56:00;1.45;;;1.35;;
13171;SDS011;6651;53.200;10.432;2023-05-20T04:58:27;3.78;;;1.90;;
13171;SDS011;6651;53.200;10.432;2023-05-20T05:00:53;2.80;;;1.90;;
13171;SDS011;6651;53.200;10.432;2023-05-20T05:03:20;2.33;;;1.70;;
13171;SDS011;6651;53.200;10.432;2023-05-20T05:05:46;3.08;;;1.65;;
13171;SDS011;6651;53.200;10.432;2023-05-20T05:08:12;3.70;;;1.63;;
13171;SDS011;6651;53.200;10.432;2023-05-20T05:10:38;3.53;;;1.77;;
13171;SDS011;6651;53.200;10.432;2023-05-20T05:13:04;4.20;;;2.00;;
13171;SDS011;6651;53.200;10.432;2023-05-20T05:15:31;3.50;;;1.67;;
13171;SDS011;6651;53.200;10.432;2023-05-20T05:17:57;2.53;;;1.70;;
13171;SDS011;6651;53.200;10.432;2023-05-20T05:20:23;5.40;;;1.98;;
13171;SDS011;6651;53.200;10.432;2023-05-20T05:22:49;3.15;;;1.92;;
13171;SDS011;6651;53.200;10.432;2023-05-20T05:25:15;4.05;;;1.90;;
13171;SDS011;6651;53.200;10.432;2023-05-20T05:27:41;4.63;;;1.85;;
13171;SDS011;6651;53.200;10.432;2023-05-20T05:30:08;2.60;;;1.95;;
13171;SDS011;6651;53.200;10.432;2023-05-20T05:32:35;3.47;;;2.00;;
13171;SDS011;6651;53.200;10.432;2023-05-20T05:35:02;2.85;;;1.80;;
13171;SDS011;6651;53.200;10.432;2023-05-20T05:37:28;4.72;;;2.25;;
13171;SDS011;6651;53.200;10.432;2023-05-20T05:39:54;2.88;;;2.00;;
13171;SDS011;6651;53.200;10.432;2023-05-20T05:42:20;4.93;;;2.10;;
13171;SDS011;6651;53.200;10.432;2023-05-20T05:44:46;2.95;;;1.85;;
13171;SDS011;6651;53.200;10.432;2023-05-20T05:47:16;3.35;;;2.10;;
13171;SDS011;6651;53.200;10.432;2023-05-20T05:49:42;2.40;;;1.90;;
13171;SDS011;6651;53.200;10.432;2023-05-20T05:52:08;4.55;;;2.28;;
13171;SDS011;6651;53.200;10.432;2023-05-20T05:54:34;3.88;;;2.05;;
13171;SDS011;6651;53.200;10.432;2023-05-20T05:57:00;3.67;;;2.20;;
13171;SDS011;6651;53.200;10.432;2023-05-20T05:59:26;4.28;;;2.10;;
13171;SDS011;6651;53.200;10.432;2023-05-20T06:01:51;3.33;;;2.28;;
13171;SDS011;6651;53.200;10.432;2023-05-20T06:04:17;3.85;;;2.05;;
13171;SDS011;6651;53.200;10.432;2023-05-20T06:06:43;2.45;;;1.85;;
13171;SDS011;6651;53.200;10.432;2023-05-20T06:09:09;3.58;;;2.22;;
13171;SDS011;6651;53.200;10.432;2023-05-20T06:11:35;3.60;;;2.30;;
13171;SDS011;6651;53.200;10.432;2023-05-20T06:14:01;3.63;;;2.28;;
13171;SDS011;6651;53.200;10.432;2023-05-20T06:16:27;2.78;;;2.10;;
13171;SDS011;6651;53.200;10.432;2023-05-20T06:18:53;3.42;;;2.25;;
13171;SDS011;6651;53.200;10.432;2023-05-20T06:21:21;4.18;;;2.25;;
13171;SDS011;6651;53.200;10.432;2023-05-20T06:23:47;4.38;;;2.30;;
13171;SDS011;6651;53.200;10.432;2023-05-20T06:26:13;2.90;;;2.38;;
13171;SDS011;6651;53.200;10.432;2023-05-20T06:28:39;2.92;;;2.20;;
13171;SDS011;6651;53.200;10.432;2023-05-20T06:31:05;2.85;;;2.10;;
13171;SDS011;6651;53.200;10.432;2023-05-20T06:33:31;3.58;;;2.20;;
13171;SDS011;6651;53.200;10.432;2023-05-20T06:35:57;3.22;;;2.03;;
13171;SDS011;6651;53.200;10.432;2023-05-20T06:38:25;3.13;;;2.13;;
13171;SDS011;6651;53.200;10.432;2023-05-20T06:40:51;5.15;;;2.30;;
13171;SDS011;6651;53.200;10.432;2023-05-20T06:43:17;3.67;;;2.40;;
13171;SDS011;6651;53.200;10.432;2023-05-20T06:45:43;4.05;;;2.30;;
13171;SDS011;6651;53.200;10.432;2023-05-20T06:48:09;3.92;;;2.00;;
13171;SDS011;6651;53.200;10.432;2023-05-20T06:50:35;3.78;;;2.10;;
13171;SDS011;6651;53.200;10.432;2023-05-20T06:53:02;2.47;;;2.08;;
13171;SDS011;6651;53.200;10.432;2023-05-20T06:55:28;4.22;;;2.10;;
13171;SDS011;6651;53.200;10.432;2023-05-20T06:57:54;4.55;;;2.40;;
13171;SDS011;6651;53.200;10.432;2023-05-20T07:00:20;4.40;;;2.42;;
13171;SDS011;6651;53.200;10.432;2023-05-20T07:02:46;4.13;;;2.70;;
13171;SDS011;6651;53.200;10.432;2023-05-20T07:05:12;3.15;;;2.25;;
13171;SDS011;6651;53.200;10.432;2023-05-20T07:07:38;2.83;;;1.83;;
13171;SDS011;6651;53.200;10.432;2023-05-20T07:10:05;2.45;;;1.85;;
13171;SDS011;6651;53.200;10.432;2023-05-20T07:12:31;3.22;;;2.15;;
13171;SDS011;6651;53.200;10.432;2023-05-20T07:14:57;3.92;;;2.35;;
13171;SDS011;6651;53.200;10.432;2023-05-20T07:17:23;3.67;;;2.10;;
13171;SDS011;6651;53.200;10.432;2023-05-20T07:19:49;2.45;;;1.85;;
13171;SDS011;6651;53.200;10.432;2023-05-20T07:22:15;3.28;;;2.20;;
13171;SDS011;6651;53.200;10.432;2023-05-20T07:24:41;4.00;;;2.30;;
13171;SDS011;6651;53.200;10.432;2023-05-20T07:27:08;4.15;;;2.20;;
13171;SDS011;6651;53.200;10.432;2023-05-20T07:29:37;4.22;;;1.90;;
13171;SDS011;6651;53.200;10.432;2023-05-20T07:32:03;3.50;;;2.10;;
13171;SDS011;6651;53.200;10.432;2023-05-20T07:34:29;3.92;;;2.17;;
13171;SDS011;6651;53.200;10.432;2023-05-20T07:36:56;2.72;;;2.10;;
13171;SDS011;6651;53.200;10.432;2023-05-20T07:39:22;4.07;;;2.05;;
13171;SDS011;6651;53.200;10.432;2023-05-20T07:41:48;3.42;;;2.40;;
13171;SDS011;6651;53.200;10.432;2023-05-20T07:44:14;4.82;;;2.10;;
13171;SDS011;6651;53.200;10.432;2023-05-20T07:46:42;3.95;;;1.95;;
13171;SDS011;6651;53.200;10.432;2023-05-20T07:49:11;3.45;;;2.28;;
13171;SDS011;6651;53.200;10.432;2023-05-20T07:51:37;2.70;;;2.00;;
13171;SDS011;6651;53.200;10.432;2023-05-20T07:54:03;3.08;;;1.95;;
13171;SDS011;6651;53.200;10.432;2023-05-20T07:56:29;3.10;;;1.80;;
13171;SDS011;6651;53.200;10.432;2023-05-20T07:58:56;4.00;;;2.20;;
13171;SDS011;6651;53.200;10.432;2023-05-20T08:01:23;3.22;;;1.98;;
13171;SDS011;6651;53.200;10.432;2023-05-20T08:03:49;2.47;;;1.90;;
13171;SDS011;6651;53.200;10.432;2023-05-20T08:06:15;4.72;;;1.95;;
13171;SDS011;6651;53.200;10.432;2023-05-20T08:08:41;2.72;;;1.88;;
13171;SDS011;6651;53.200;10.432;2023-05-20T08:11:07;3.92;;;2.30;;
13171;SDS011;6651;53.200;10.432;2023-05-20T08:13:33;5.38;;;2.53;;
13171;SDS011;6651;53.200;10.432;2023-05-20T08:15:59;3.67;;;2.30;;
13171;SDS011;6651;53.200;10.432;2023-05-20T08:18:27;3.42;;;2.28;;
13171;SDS011;6651;53.200;10.432;2023-05-20T08:20:53;3.72;;;2.28;;
13171;SDS011;6651;53.200;10.432;2023-05-20T08:23:19;3.95;;;2.03;;
13171;SDS011;6651;53.200;10.432;2023-05-20T08:25:45;3.28;;;2.20;;
13171;SDS011;6651;53.200;10.432;2023-05-20T08:28:12;4.65;;;2.10;;
13171;SDS011;6651;53.200;10.432;2023-05-20T08:30:38;5.88;;;2.20;;
13171;SDS011;6651;53.200;10.432;2023-05-20T08:33:03;3.22;;;1.90;;
13171;SDS011;6651;53.200;10.432;2023-05-20T08:35:29;3.40;;;1.92;;
13171;SDS011;6651;53.200;10.432;2023-05-20T08:37:58;3.63;;;2.00;;
13171;SDS011;6651;53.200;10.432;2023-05-20T08:40:26;3.03;;;2.28;;
13171;SDS011;6651;53.200;10.432;2023-05-20T08:42:51;2.50;;;1.95;;
13171;SDS011;6651;53.200;10.432;2023-05-20T08:45:18;3.70;;;2.30;;
13171;SDS011;6651;53.200;10.432;2023-05-20T08:47:45;3.72;;;2.20;;
13171;SDS011;6651;53.200;10.432;2023-05-20T08:50:12;3.40;;;2.10;;
13171;SDS011;6651;53.200;10.432;2023-05-20T08:52:47;3.35;;;1.95;;
13171;SDS011;6651;53.200;10.432;2023-05-20T08:57:54;2.75;;;2.20;;
13171;SDS011;6651;53.200;10.432;2023-05-20T09:00:48;2.55;;;1.95;;
13171;SDS011;6651;53.200;10.432;2023-05-20T09:03:17;3.28;;;2.03;;
13171;SDS011;6651;53.200;10.432;2023-05-20T09:05:46;3.75;;;2.00;;
13171;SDS011;6651;53.200;10.432;2023-05-20T09:08:36;4.28;;;2.22;;
13171;SDS011;6651;53.200;10.432;2023-05-20T09:11:11;3.38;;;2.10;;
13171;SDS011;6651;53.200;10.432;2023-05-20T09:13:42;2.85;;;2.10;;
13171;SDS011;6651;53.200;10.432;2023-05-20T09:16:08;3.88;;;2.03;;
13171;SDS011;6651;53.200;10.432;2023-05-20T09:21:40;3.47;;;2.30;;
13171;SDS011;6651;53.200;10.432;2023-05-20T09:24:13;4.40;;;2.13;;
13171;SDS011;6651;53.200;10.432;2023-05-20T09:27:14;3.20;;;2.00;;
13171;SDS011;6651;53.200;10.432;2023-05-20T09:29:53;2.92;;;2.10;;
13171;SDS011;6651;53.200;10.432;2023-05-20T09:32:31;2.95;;;2.10;;
13171;SDS011;6651;53.200;10.432;2023-05-20T09:34:59;4.40;;;2.10;;
13171;SDS011;6651;53.200;10.432;2023-05-20T09:37:36;3.78;;;2.17;;
13171;SDS011;6651;53.200;10.432;2023-05-20T09:40:49;4.28;;;2.22;;
13171;SDS011;6651;53.200;10.432;2023-05-20T09:43:25;3.58;;;2.00;;
13171;SDS011;6651;53.200;10.432;2023-05-20T09:46:14;3.08;;;1.90;;
13171;SDS011;6651;53.200;10.432;2023-05-20T09:52:40;5.03;;;2.00;;
13171;SDS011;6651;53.200;10.432;2023-05-20T09:59:02;6.60;;;2.38;;
13171;SDS011;6651;53.200;10.432;2023-05-20T10:01:52;3.05;;;2.00;;
13171;SDS011;6651;53.200;10.432;2023-05-20T10:08:31;3.50;;;1.90;;
13171;SDS011;6651;53.200;10.432;2023-05-20T10:23:21;3.40;;;2.10;;
13171;SDS011;6651;53.200;10.432;2023-05-20T10:26:06;4.82;;;1.90;;
13171;SDS011;6651;53.200;10.432;2023-05-20T10:28:33;1.70;;;1.60;;
13171;SDS011;6651;53.200;10.432;2023-05-20T10:31:00;5.03;;;2.10;;
13171;SDS011;6651;53.200;10.432;2023-05-20T10:33:27;3.17;;;1.85;;
13171;SDS011;6651;53.200;10.432;2023-05-20T10:35:56;2.53;;;2.00;;
13171;SDS011;6651;53.200;10.432;2023-05-20T10:38:26;2.38;;;1.88;;
13171;SDS011;6651;53.200;10.432;2023-05-20T10:40:52;2.78;;;2.03;;
13171;SDS011;6651;53.200;10.432;2023-05-20T10:43:27;3.25;;;2.20;;
13171;SDS011;6651;53.200;10.432;2023-05-20T10:45:53;3.60;;;2.03;;
13171;SDS011;6651;53.200;10.432;2023-05-20T10:48:25;5.85;;;2.30;;
13171;SDS011;6651;53.200;10.432;2023-05-20T10:50:56;4.15;;;2.17;;
13171;SDS011;6651;53.200;10.432;2023-05-20T10:53:24;4.38;;;2.10;;
13171;SDS011;6651;53.200;10.432;2023-05-20T10:55:52;2.85;;;2.15;;
13171;SDS011;6651;53.200;10.432;2023-05-20T10:58:20;3.80;;;2.00;;
13171;SDS011;6651;53.200;10.432;2023-05-20T11:00:47;4.13;;;2.10;;
13171;SDS011;6651;53.200;10.432;2023-05-20T11:03:15;3.97;;;2.10;;
13171;SDS011;6651;53.200;10.432;2023-05-20T11:05:43;3.30;;;2.10;;
13171;SDS011;6651;53.200;10.432;2023-05-20T11:08:11;4.30;;;2.20;;
13171;SDS011;6651;53.200;10.432;2023-05-20T11:10:36;3.15;;;2.00;;
13171;SDS011;6651;53.200;10.432;2023-05-20T11:13:02;3.05;;;1.88;;
13171;SDS011;6651;53.200;10.432;2023-05-20T11:15:33;4.03;;;2.40;;
13171;SDS011;6651;53.200;10.432;2023-05-20T11:18:00;3.47;;;2.20;;
13171;SDS011;6651;53.200;10.432;2023-05-20T11:20:27;4.05;;;2.25;;
13171;SDS011;6651;53.200;10.432;2023-05-20T11:22:53;4.18;;;2.10;;
13171;SDS011;6651;53.200;10.432;2023-05-20T11:25:20;4.55;;;2.40;;
13171;SDS011;6651;53.200;10.432;2023-05-20T11:27:47;3.45;;;2.30;;
13171;SDS011;6651;53.200;10.432;2023-05-20T11:30:14;3.42;;;2.40;;
13171;SDS011;6651;53.200;10.432;2023-05-20T11:32:44;4.75;;;2.60;;
13171;SDS011;6651;53.200;10.432;2023-05-20T11:35:25;3.45;;;2.38;;
13171;SDS011;6651;53.200;10.432;2023-05-20T11:37:54;4.03;;;2.53;;
13171;SDS011;6651;53.200;10.432;2023-05-20T11:40:24;4.80;;;3.03;;
13171;SDS011;6651;53.200;10.432;2023-05-20T11:42:57;4.13;;;2.70;;
13171;SDS011;6651;53.200;10.432;2023-05-20T11:45:37;5.53;;;2.65;;
13171;SDS011;6651;53.200;10.432;2023-05-20T11:48:07;7.25;;;2.70;;
13171;SDS011;6651;53.200;10.432;2023-05-20T11:50:38;4.22;;;2.78;;
13171;SDS011;6651;53.200;10.432;2023-05-20T11:53:09;3.38;;;2.70;;
13171;SDS011;6651;53.200;10.432;2023-05-20T11:55:58;5.40;;;2.50;;
13171;SDS011;6651;53.200;10.432;2023-05-20T11:58:29;3.88;;;2.67;;
13171;SDS011;6651;53.200;10.432;2023-05-20T12:00:55;4.10;;;3.00;;
13171;SDS011;6651;53.200;10.432;2023-05-20T12:03:22;3.80;;;2.78;;
13171;SDS011;6651;53.200;10.432;2023-05-20T12:05:48;5.07;;;2.90;;
13171;SDS011;6651;53.200;10.432;2023-05-20T12:08:14;4.82;;;3.10;;
13171;SDS011;6651;53.200;10.432;2023-05-20T12:10:40;4.32;;;3.10;;
13171;SDS011;6651;53.200;10.432;2023-05-20T12:13:06;5.65;;;2.90;;
13171;SDS011;6651;53.200;10.432;2023-05-20T12:15:36;4.30;;;3.30;;
13171;SDS011;6651;53.200;10.432;2023-05-20T12:18:02;4.07;;;3.20;;
13171;SDS011;6651;53.200;10.432;2023-05-20T12:20:28;3.63;;;2.90;;
13171;SDS011;6651;53.200;10.432;2023-05-20T12:22:55;4.47;;;3.13;;
13171;SDS011;6651;53.200;10.432;2023-05-20T12:25:21;4.55;;;3.08;;
13171;SDS011;6651;53.200;10.432;2023-05-20T12:27:47;5.47;;;3.13;;
13171;SDS011;6651;53.200;10.432;2023-05-20T12:30:17;4.40;;;3.25;;
13171;SDS011;6651;53.200;10.432;2023-05-20T12:32:44;3.47;;;3.00;;
13171;SDS011;6651;53.200;10.432;2023-05-20T12:35:11;6.43;;;3.90;;
13171;SDS011;6651;53.200;10.432;2023-05-20T12:37:38;5.10;;;3.67;;
13171;SDS011;6651;53.200;10.432;2023-05-20T12:40:05;5.35;;;3.60;;
13171;SDS011;6651;53.200;10.432;2023-05-20T12:42:39;5.63;;;3.50;;
13171;SDS011;6651;53.200;10.432;2023-05-20T12:45:06;3.70;;;3.30;;
13171;SDS011;6651;53.200;10.432;2023-05-20T12:47:33;4.03;;;3.40;;
13171;SDS011;6651;53.200;10.432;2023-05-20T12:50:00;3.67;;;3.30;;
13171;SDS011;6651;53.200;10.432;2023-05-20T12:52:26;4.63;;;3.55;;
13171;SDS011;6651;53.200;10.432;2023-05-20T12:54:52;6.10;;;3.50;;
13171;SDS011;6651;53.200;10.432;2023-05-20T12:57:20;4.63;;;3.17;;
13171;SDS011;6651;53.200;10.432;2023-05-20T12:59:45;4.32;;;3.35;;
13171;SDS011;6651;53.200;10.432;2023-05-20T13:02:11;4.82;;;3.63;;
13171;SDS011;6651;53.200;10.432;2023-05-20T13:04:37;5.20;;;3.40;;
13171;SDS011;6651;53.200;10.432;2023-05-20T13:07:02;5.18;;;3.45;;
13171;SDS011;6651;53.200;10.432;2023-05-20T13:09:28;4.65;;;3.30;;
13171;SDS011;6651;53.200;10.432;2023-05-20T13:11:54;5.38;;;3.45;;
13171;SDS011;6651;53.200;10.432;2023-05-20T13:14:20;4.93;;;3.70;;
13171;SDS011;6651;53.200;10.432;2023-05-20T13:16:46;5.07;;;3.28;;
13171;SDS011;6651;53.200;10.432;2023-05-20T13:19:13;4.80;;;3.40;;
13171;SDS011;6651;53.200;10.432;2023-05-20T13:21:39;4.10;;;3.28;;
13171;SDS011;6651;53.200;10.432;2023-05-20T13:24:04;4.68;;;3.38;;
13171;SDS011;6651;53.200;10.432;2023-05-20T13:26:30;4.13;;;3.10;;
13171;SDS011;6651;53.200;10.432;2023-05-20T13:28:55;6.20;;;3.28;;
13171;SDS011;6651;53.200;10.432;2023-05-20T13:31:21;5.57;;;3.22;;
13171;SDS011;6651;53.200;10.432;2023-05-20T13:33:47;4.68;;;3.30;;
13171;SDS011;6651;53.200;10.432;2023-05-20T13:36:12;4.70;;;3.70;;
13171;SDS011;6651;53.200;10.432;2023-05-20T13:38:38;3.90;;;3.20;;
13171;SDS011;6651;53.200;10.432;2023-05-20T13:41:04;5.22;;;3.13;;
13171;SDS011;6651;53.200;10.432;2023-05-20T13:43:30;3.97;;;2.97;;
13171;SDS011;6651;53.200;10.432;2023-05-20T13:45:57;4.15;;;3.03;;
13171;SDS011;6651;53.200;10.432;2023-05-20T13:48:23;3.80;;;2.97;;
13171;SDS011;6651;53.200;10.432;2023-05-20T13:50:48;5.00;;;3.08;;
13171;SDS011;6651;53.200;10.432;2023-05-20T13:53:14;4.68;;;3.15;;
13171;SDS011;6651;53.200;10.432;2023-05-20T13:55:40;3.00;;;2.70;;
13171;SDS011;6651;53.200;10.432;2023-05-20T13:58:05;4.70;;;3.20;;
13171;SDS011;6651;53.200;10.432;2023-05-20T14:00:35;4.35;;;3.00;;
13171;SDS011;6651;53.200;10.432;2023-05-20T14:03:01;4.78;;;2.63;;
13171;SDS011;6651;53.200;10.432;2023-05-20T14:05:29;4.75;;;3.03;;
13171;SDS011;6651;53.200;10.432;2023-05-20T14:07:56;4.13;;;2.97;;
13171;SDS011;6651;53.200;10.432;2023-05-20T14:10:22;3.35;;;2.90;;
13171;SDS011;6651;53.200;10.432;2023-05-20T14:12:47;5.35;;;3.00;;
13171;SDS011;6651;53.200;10.432;2023-05-20T14:15:13;3.17;;;2.72;;
13171;SDS011;6651;53.200;10.432;2023-05-20T14:17:39;3.40;;;2.70;;
13171;SDS011;6651;53.200;10.432;2023-05-20T14:20:05;4.78;;;2.80;;
13171;SDS011;6651;53.200;10.432;2023-05-20T14:22:32;3.85;;;2.90;;
13171;SDS011;6651;53.200;10.432;2023-05-20T14:24:57;5.85;;;2.80;;
13171;SDS011;6651;53.200;10.432;2023-05-20T14:27:23;3.83;;;2.55;;
13171;SDS011;6651;53.200;10.432;2023-05-20T14:29:49;2.88;;;2.60;;
13171;SDS011;6651;53.200;10.432;2023-05-20T14:32:14;4.38;;;2.60;;
13171;SDS011;6651;53.200;10.432;2023-05-20T14:34:40;4.78;;;2.80;;
13171;SDS011;6651;53.200;10.432;2023-05-20T14:37:06;3.80;;;2.90;;
13171;SDS011;6651;53.200;10.432;2023-05-20T14:39:34;3.85;;;2.80;;
13171;SDS011;6651;53.200;10.432;2023-05-20T14:42:00;3.97;;;3.08;;
13171;SDS011;6651;53.200;10.432;2023-05-20T14:44:27;3.90;;;2.60;;
13171;SDS011;6651;53.200;10.432;2023-05-20T14:46:53;3.03;;;2.42;;
13171;SDS011;6651;53.200;10.432;2023-05-20T14:49:19;5.78;;;2.53;;
13171;SDS011;6651;53.200;10.432;2023-05-20T14:51:45;3.22;;;2.75;;
13171;SDS011;6651;53.200;10.432;2023-05-20T14:54:11;2.60;;;2.40;;
13171;SDS011;6651;53.200;10.432;2023-05-20T14:56:38;4.05;;;2.60;;
13171;SDS011;6651;53.200;10.432;2023-05-20T14:59:05;3.10;;;2.42;;
13171;SDS011;6651;53.200;10.432;2023-05-20T15:01:31;3.78;;;2.53;;
13171;SDS011;6651;53.200;10.432;2023-05-20T15:03:57;3.42;;;2.60;;
13171;SDS011;6651;53.200;10.432;2023-05-20T15:06:23;4.80;;;3.03;;
13171;SDS011;6651;53.200;10.432;2023-05-20T15:08:49;3.88;;;2.60;;
13171;SDS011;6651;53.200;10.432;2023-05-20T15:11:14;4.50;;;2.80;;
13171;SDS011;6651;53.200;10.432;2023-05-20T15:13:40;3.10;;;2.50;;
13171;SDS011;6651;53.200;10.432;2023-05-20T15:16:10;3.92;;;2.42;;
13171;SDS011;6651;53.200;10.432;2023-05-20T15:18:36;2.28;;;2.08;;
13171;SDS011;6651;53.200;10.432;2023-05-20T15:21:02;3.67;;;2.72;;